createdAt,value
2023-02-26T00:01:32.931Z,100.00
2023-02-26T00:04:03.318Z,100.00
2023-02-26T00:06:34.237Z,100.00
2023-02-26T00:09:01.596Z,100.00
2023-02-26T00:11:29.165Z,100.00
2023-02-26T00:13:56.770Z,100.00
2023-02-26T00:16:26.902Z,100.00
2023-02-26T00:18:55.839Z,100.00
2023-02-26T00:21:24.887Z,100.00
2023-02-26T00:23:52.687Z,100.00
2023-02-26T00:26:20.552Z,100.00
2023-02-26T00:28:48.077Z,100.00
2023-02-26T00:31:16.924Z,100.00
2023-02-26T00:33:45.321Z,100.00
2023-02-26T00:36:18.098Z,100.00
2023-02-26T00:38:59.481Z,100.00
2023-02-26T00:41:26.937Z,100.00
2023-02-26T00:43:54.234Z,100.00
2023-02-26T00:46:47.432Z,99.87
2023-02-26T00:49:32.034Z,99.83
2023-02-26T00:52:02.990Z,99.96
2023-02-26T00:54:31.754Z,100.00
2023-02-26T00:57:00.269Z,100.00
2023-02-26T00:59:27.208Z,100.00
2023-02-26T01:01:54.144Z,100.00
2023-02-26T01:04:23.346Z,100.00
2023-02-26T01:06:57.990Z,100.00
2023-02-26T01:09:35.256Z,100.00
2023-02-26T01:12:10.038Z,100.00
2023-02-26T01:14:37.967Z,100.00
2023-02-26T01:17:32.215Z,100.00
2023-02-26T01:20:10.244Z,100.00
2023-02-26T01:22:57.476Z,100.00
2023-02-26T01:25:50.611Z,100.00
2023-02-26T01:28:18.328Z,100.00
2023-02-26T01:30:46.270Z,99.87
2023-02-26T01:33:48.099Z,100.00
2023-02-26T01:36:23.497Z,99.89
2023-02-26T01:39:51.645Z,99.71
2023-02-26T01:42:24.086Z,99.43
2023-02-26T01:45:05.567Z,99.53
2023-02-26T01:47:52.122Z,99.47
2023-02-26T01:50:29.795Z,99.22
2023-02-26T01:53:25.961Z,99.04
2023-02-26T01:56:00.603Z,98.99
2023-02-26T01:58:33.521Z,99.33
2023-02-26T02:01:02.406Z,99.15
2023-02-26T02:03:34.706Z,99.27
2023-02-26T02:06:09.282Z,99.39
2023-02-26T02:08:36.638Z,99.38
2023-02-26T02:11:07.544Z,99.20
2023-02-26T02:13:40.371Z,99.15
2023-02-26T02:17:03.233Z,99.15
2023-02-26T02:20:10.251Z,99.17
2023-02-26T02:23:11.361Z,98.96
2023-02-26T02:26:07.034Z,98.79
2023-02-26T02:29:21.735Z,98.68
2023-02-26T02:32:04.760Z,98.63
2023-02-26T02:34:50.207Z,98.35
2023-02-26T02:37:25.973Z,98.15
2023-02-26T02:40:29.209Z,97.86
2023-02-26T02:43:04.015Z,98.28
2023-02-26T02:45:57.063Z,98.13
2023-02-26T02:48:35.111Z,98.07
2023-02-26T02:51:11.650Z,98.12
2023-02-26T02:53:44.467Z,98.01
2023-02-26T02:56:18.305Z,98.27
2023-02-26T02:58:51.669Z,97.88
2023-02-26T03:01:21.956Z,98.06
2023-02-26T03:04:07.970Z,98.02
2023-02-26T03:06:35.981Z,98.14
2023-02-26T03:09:06.393Z,97.88
2023-02-26T03:11:33.843Z,97.92
2023-02-26T03:14:01.559Z,97.90
2023-02-26T03:17:15.674Z,97.40
2023-02-26T03:19:57.258Z,97.64
2023-02-26T03:23:04.769Z,97.48
2023-02-26T03:25:48.582Z,97.45
2023-02-26T03:28:48.649Z,97.64
2023-02-26T03:31:29.473Z,97.18
2023-02-26T03:34:41.569Z,97.29
2023-02-26T03:37:20.076Z,97.18
2023-02-26T03:39:54.711Z,97.17
2023-02-26T03:42:52.431Z,96.87
2023-02-26T03:45:32.170Z,96.71
2023-02-26T03:48:01.662Z,96.78
2023-02-26T03:50:37.219Z,97.03
2023-02-26T03:53:10.448Z,96.90
2023-02-26T03:55:48.086Z,96.95
2023-02-26T03:58:15.164Z,96.79
2023-02-26T04:00:47.095Z,96.38
2023-02-26T04:03:27.219Z,96.24
2023-02-26T04:05:54.960Z,96.69
2023-02-26T04:08:23.570Z,96.40
2023-02-26T04:11:06.274Z,96.51
2023-02-26T04:13:34.961Z,96.49
2023-02-26T04:16:01.934Z,96.14
2023-02-26T04:18:28.842Z,96.31
2023-02-26T04:20:55.957Z,96.11
2023-02-26T04:23:22.970Z,96.12
2023-02-26T04:25:49.912Z,95.71
2023-02-26T04:28:17.115Z,95.88
2023-02-26T04:30:44.683Z,95.79
2023-02-26T04:33:11.589Z,95.76
2023-02-26T04:35:38.804Z,95.52
2023-02-26T04:38:05.810Z,95.18
2023-02-26T04:40:33.019Z,95.35
2023-02-26T04:42:59.989Z,95.34
2023-02-26T04:45:26.977Z,95.21
2023-02-26T04:47:53.856Z,95.01
2023-02-26T04:50:20.984Z,94.83
2023-02-26T04:52:47.901Z,94.94
2023-02-26T04:55:14.850Z,95.01
2023-02-26T04:57:41.779Z,94.81
2023-02-26T05:00:09.751Z,94.30
2023-02-26T05:02:36.816Z,94.60
2023-02-26T05:05:04.289Z,94.60
2023-02-26T05:07:31.286Z,94.35
2023-02-26T05:09:58.456Z,93.94
2023-02-26T05:12:25.678Z,93.90
2023-02-26T05:14:52.564Z,93.67
2023-02-26T05:17:19.502Z,94.12
2023-02-26T05:19:46.381Z,93.50
2023-02-26T05:22:13.978Z,93.31
2023-02-26T05:24:41.203Z,93.71
2023-02-26T05:27:08.282Z,93.25
2023-02-26T05:29:35.334Z,93.28
2023-02-26T05:32:03.827Z,92.91
2023-02-26T05:34:30.775Z,93.13
2023-02-26T05:36:57.694Z,93.06
2023-02-26T05:39:24.677Z,93.23
2023-02-26T05:41:53.196Z,92.99
2023-02-26T05:44:20.069Z,92.90
2023-02-26T05:46:46.995Z,92.42
2023-02-26T05:49:14.013Z,92.64
2023-02-26T05:51:42.868Z,92.56
2023-02-26T05:54:10.520Z,92.80
2023-02-26T05:56:37.422Z,92.40
2023-02-26T05:59:04.570Z,91.94
2023-02-26T06:01:31.767Z,91.54
2023-02-26T06:03:58.714Z,91.71
2023-02-26T06:06:27.110Z,91.59
2023-02-26T06:08:54.188Z,91.87
2023-02-26T06:11:21.088Z,91.60
2023-02-26T06:13:48.597Z,91.24
2023-02-26T06:16:15.779Z,91.09
2023-02-26T06:18:42.649Z,91.17
2023-02-26T06:21:09.563Z,90.94
2023-02-26T06:23:36.546Z,91.27
2023-02-26T06:26:05.102Z,91.36
2023-02-26T06:28:32.583Z,91.03
2023-02-26T06:30:59.695Z,90.62
2023-02-26T06:33:26.656Z,91.02
2023-02-26T06:35:53.759Z,90.86
2023-02-26T06:38:20.735Z,90.30
2023-02-26T06:40:48.524Z,89.94
2023-02-26T06:43:15.528Z,90.03
2023-02-26T06:45:42.504Z,89.82
2023-02-26T06:48:09.438Z,89.69
2023-02-26T06:50:36.507Z,89.55
2023-02-26T06:53:03.497Z,89.95
2023-02-26T06:55:30.478Z,90.29
2023-02-26T06:57:58.417Z,90.50
2023-02-26T07:00:26.536Z,90.31
2023-02-26T07:02:53.514Z,89.03
2023-02-26T07:05:21.161Z,87.69
2023-02-26T07:07:48.557Z,87.25
2023-02-26T07:10:15.474Z,86.50
2023-02-26T07:12:42.613Z,85.41
2023-02-26T07:15:10.117Z,83.47
2023-02-26T07:17:37.075Z,83.25
2023-02-26T07:20:10.091Z,83.70
2023-02-26T07:22:38.445Z,83.03
2023-02-26T07:25:07.246Z,83.54
2023-02-26T07:27:34.593Z,84.30
2023-02-26T07:30:02.125Z,83.93
2023-02-26T07:32:29.217Z,84.70
2023-02-26T07:34:56.317Z,85.57
2023-02-26T07:37:24.308Z,85.29
2023-02-26T07:39:51.758Z,85.14
2023-02-26T07:42:18.937Z,85.47
2023-02-26T07:44:46.009Z,86.62
2023-02-26T07:47:13.750Z,86.16
2023-02-26T07:49:40.731Z,85.22
2023-02-26T07:52:08.288Z,84.09
2023-02-26T07:54:38.158Z,82.36
2023-02-26T07:57:05.200Z,81.33
2023-02-26T07:59:32.243Z,80.86
2023-02-26T08:01:59.183Z,80.02
2023-02-26T08:04:26.301Z,79.45
2023-02-26T08:06:57.343Z,78.80
2023-02-26T08:09:24.350Z,76.10
2023-02-26T08:11:51.293Z,75.25
2023-02-26T08:14:18.445Z,73.67
2023-02-26T08:16:45.428Z,72.19
2023-02-26T08:19:12.635Z,69.96
2023-02-26T08:21:39.596Z,69.16
2023-02-26T08:24:06.787Z,68.55
2023-02-26T08:26:37.341Z,66.74
2023-02-26T08:29:05.254Z,66.53
2023-02-26T08:31:34.533Z,66.43
2023-02-26T08:34:01.961Z,66.27
2023-02-26T08:36:28.880Z,65.97
2023-02-26T08:38:55.825Z,65.19
2023-02-26T08:41:23.410Z,64.20
2023-02-26T08:43:51.397Z,63.04
2023-02-26T08:46:18.409Z,62.74
2023-02-26T08:48:45.404Z,62.11
2023-02-26T08:51:12.357Z,61.73
2023-02-26T08:53:40.324Z,61.69
2023-02-26T08:56:07.541Z,61.18
2023-02-26T08:58:34.485Z,60.07
2023-02-26T09:01:01.394Z,59.42
2023-02-26T09:03:28.353Z,58.23
2023-02-26T09:05:55.311Z,57.66
2023-02-26T09:08:22.273Z,57.24
2023-02-26T09:10:49.388Z,56.96
2023-02-26T09:13:16.369Z,56.13
2023-02-26T09:15:43.391Z,55.69
2023-02-26T09:18:15.426Z,54.16
2023-02-26T09:20:44.184Z,53.22
2023-02-26T09:23:12.402Z,52.80
2023-02-26T09:25:39.465Z,51.97
2023-02-26T09:28:06.532Z,51.67
2023-02-26T09:30:33.730Z,52.06
2023-02-26T09:33:00.719Z,51.90
2023-02-26T09:35:27.729Z,51.70
2023-02-26T09:37:54.760Z,52.57
2023-02-26T09:40:29.085Z,52.03
2023-02-26T09:43:43.321Z,52.32
2023-02-26T09:46:34.375Z,52.09
2023-02-26T09:49:38.523Z,52.51
2023-02-26T09:52:49.236Z,52.56
2023-02-26T09:55:31.556Z,51.66
2023-02-26T09:58:05.392Z,53.07
2023-02-26T10:00:56.169Z,53.19
2023-02-26T10:03:54.529Z,52.26
2023-02-26T10:06:33.961Z,52.47
2023-02-26T10:09:19.344Z,52.50
2023-02-26T10:11:46.316Z,52.88
2023-02-26T10:14:23.553Z,53.04
2023-02-26T10:16:58.490Z,53.01
2023-02-26T10:19:34.933Z,53.38
2023-02-26T10:22:15.759Z,52.63
2023-02-26T10:24:52.246Z,51.98
2023-02-26T10:27:40.310Z,52.33
2023-02-26T10:30:41.421Z,52.77
2023-02-26T10:33:18.624Z,53.47
2023-02-26T10:35:54.641Z,53.33
2023-02-26T10:38:27.556Z,53.99
2023-02-26T10:41:13.186Z,54.58
2023-02-26T10:43:53.164Z,55.58
2023-02-26T10:46:46.430Z,55.82
2023-02-26T10:49:42.541Z,55.76
2023-02-26T10:52:18.650Z,55.24
2023-02-26T10:55:04.050Z,54.47
2023-02-26T10:57:36.176Z,54.11
2023-02-26T11:00:06.468Z,53.47
2023-02-26T11:02:46.687Z,54.54
2023-02-26T11:05:28.999Z,53.88
2023-02-26T11:08:04.892Z,54.33
2023-02-26T11:10:49.553Z,53.52
2023-02-26T11:13:16.488Z,53.54
2023-02-26T11:15:47.327Z,53.83
2023-02-26T11:18:20.723Z,52.96
2023-02-26T11:20:49.161Z,52.46
2023-02-26T11:23:22.234Z,51.89
2023-02-26T11:26:16.769Z,52.51
2023-02-26T11:28:50.472Z,53.33
2023-02-26T11:31:21.574Z,54.04
2023-02-26T11:34:11.917Z,54.17
2023-02-26T11:36:42.690Z,54.35
2023-02-26T11:39:26.186Z,54.37
2023-02-26T11:41:57.637Z,54.21
2023-02-26T11:44:46.360Z,54.55
2023-02-26T11:47:30.173Z,54.97
2023-02-26T11:50:05.861Z,55.18
2023-02-26T11:52:41.364Z,55.26
2023-02-26T11:55:28.260Z,55.87
2023-02-26T11:57:56.614Z,56.43
2023-02-26T12:00:40.090Z,56.49
2023-02-26T12:03:16.672Z,56.67
2023-02-26T12:05:43.798Z,56.50
2023-02-26T12:08:42.226Z,55.69
2023-02-26T12:11:27.888Z,55.31
2023-02-26T12:14:32.876Z,55.26
2023-02-26T12:17:56.340Z,54.99
2023-02-26T12:20:27.494Z,55.41
2023-02-26T12:23:34.623Z,56.23
2023-02-26T12:26:32.448Z,55.81
2023-02-26T12:30:03.377Z,55.60
2023-02-26T12:32:47.580Z,56.09
2023-02-26T12:35:55.826Z,55.60
2023-02-26T12:38:54.447Z,55.91
2023-02-26T12:41:35.884Z,56.51
2023-02-26T12:44:32.270Z,55.56
2023-02-26T12:47:31.220Z,55.82
2023-02-26T12:50:40.138Z,55.93
2023-02-26T12:53:51.520Z,56.43
2023-02-26T12:56:52.607Z,55.47
2023-02-26T12:59:48.963Z,56.23
2023-02-26T13:02:36.849Z,56.12
2023-02-26T13:05:35.369Z,55.80
2023-02-26T13:08:33.322Z,55.32
2023-02-26T13:11:52.098Z,55.32
2023-02-26T13:15:02.002Z,55.21
2023-02-26T13:17:37.592Z,55.80
2023-02-26T13:20:18.372Z,55.85
2023-02-26T13:22:59.328Z,55.91
2023-02-26T13:25:48.688Z,55.67
2023-02-26T13:28:34.746Z,56.04
2023-02-26T13:31:04.193Z,55.72
2023-02-26T13:33:33.716Z,55.96
2023-02-26T13:36:02.680Z,56.36
2023-02-26T13:38:54.969Z,56.34
2023-02-26T13:42:09.052Z,56.52
2023-02-26T13:45:00.629Z,56.21
2023-02-26T13:48:17.941Z,56.80
2023-02-26T13:50:57.694Z,55.72
2023-02-26T13:53:28.224Z,55.90
2023-02-26T13:56:07.369Z,54.92
2023-02-26T13:58:39.597Z,54.13
2023-02-26T14:01:32.454Z,54.68
2023-02-26T14:04:23.522Z,54.57
2023-02-26T14:07:12.151Z,54.67
2023-02-26T14:10:05.261Z,54.64
2023-02-26T14:12:38.289Z,55.08
2023-02-26T14:15:29.315Z,54.24
2023-02-26T14:18:21.187Z,54.23
2023-02-26T14:20:48.233Z,54.06
2023-02-26T14:23:35.847Z,53.80
2023-02-26T14:26:12.446Z,53.75
2023-02-26T14:29:14.988Z,53.22
2023-02-26T14:31:51.177Z,54.10
2023-02-26T14:34:30.087Z,53.70
2023-02-26T14:37:07.023Z,54.22
2023-02-26T14:40:09.185Z,53.34
2023-02-26T14:42:45.405Z,53.93
2023-02-26T14:45:39.008Z,53.22
2023-02-26T14:48:13.373Z,53.65
2023-02-26T14:50:55.218Z,53.49
2023-02-26T14:53:43.184Z,54.27
2023-02-26T14:56:27.964Z,53.91
2023-02-26T15:00:01.636Z,53.58
2023-02-26T15:03:02.494Z,53.89
2023-02-26T15:06:03.057Z,54.46
2023-02-26T15:09:09.427Z,54.21
2023-02-26T15:11:52.552Z,54.82
2023-02-26T15:14:31.435Z,55.28
2023-02-26T15:17:46.915Z,55.64
2023-02-26T15:21:08.753Z,55.88
2023-02-26T15:23:52.637Z,55.97
2023-02-26T15:26:29.974Z,56.00
2023-02-26T15:28:58.937Z,55.87
2023-02-26T15:31:36.360Z,55.29
2023-02-26T15:34:04.092Z,55.53
2023-02-26T15:36:32.511Z,55.49
2023-02-26T15:39:03.843Z,55.22
2023-02-26T15:41:32.876Z,54.80
2023-02-26T15:44:10.718Z,54.31
2023-02-26T15:46:44.348Z,54.51
2023-02-26T15:49:39.284Z,54.31
2023-02-26T15:52:09.317Z,53.82
2023-02-26T15:54:48.215Z,53.62
2023-02-26T15:57:17.838Z,53.71
2023-02-26T15:59:49.780Z,53.65
2023-02-26T16:02:22.573Z,53.79
2023-02-26T16:04:49.592Z,54.17
2023-02-26T16:07:16.534Z,54.40
2023-02-26T16:09:49.060Z,54.65
2023-02-26T16:12:21.967Z,54.75
2023-02-26T16:15:01.064Z,54.99
2023-02-26T16:17:35.267Z,55.40
2023-02-26T16:20:14.934Z,55.31
2023-02-26T16:22:59.231Z,56.04
2023-02-26T16:25:56.369Z,56.31
2023-02-26T16:28:51.101Z,56.71
2023-02-26T16:31:25.662Z,57.19
2023-02-26T16:34:04.249Z,57.31
2023-02-26T16:36:37.922Z,57.96
2023-02-26T16:39:07.752Z,58.04
2023-02-26T16:41:38.550Z,58.65
2023-02-26T16:44:31.521Z,58.91
2023-02-26T16:46:59.559Z,58.98
2023-02-26T16:49:38.953Z,59.82
2023-02-26T16:52:06.752Z,59.78
2023-02-26T16:54:41.588Z,59.74
2023-02-26T16:57:19.683Z,60.08
2023-02-26T16:59:56.703Z,60.13
2023-02-26T17:02:28.433Z,60.32
2023-02-26T17:05:08.622Z,60.37
2023-02-26T17:07:46.015Z,60.86
2023-02-26T17:10:33.004Z,61.21
2023-02-26T17:13:24.898Z,61.09
2023-02-26T17:15:54.245Z,61.40
2023-02-26T17:18:22.220Z,61.60
2023-02-26T17:20:50.017Z,61.63
2023-02-26T17:23:19.021Z,61.74
2023-02-26T17:25:50.361Z,62.30
2023-02-26T17:28:24.569Z,62.66
2023-02-26T17:30:52.865Z,62.64
2023-02-26T17:33:20.886Z,62.87
2023-02-26T17:35:48.608Z,62.77
2023-02-26T17:38:17.001Z,62.48
2023-02-26T17:40:47.642Z,62.79
2023-02-26T17:43:14.735Z,62.69
2023-02-26T17:45:42.166Z,62.40
2023-02-26T17:48:11.288Z,62.32
2023-02-26T17:50:51.974Z,62.88
2023-02-26T17:53:22.133Z,62.91
2023-02-26T17:55:53.196Z,63.13
2023-02-26T17:58:30.270Z,63.27
2023-02-26T18:00:57.823Z,63.58
2023-02-26T18:03:24.844Z,63.69
2023-02-26T18:05:54.672Z,64.48
2023-02-26T18:08:25.872Z,64.28
2023-02-26T18:10:54.321Z,64.67
2023-02-26T18:13:22.970Z,64.99
2023-02-26T18:15:53.077Z,65.33
2023-02-26T18:18:21.670Z,65.26
2023-02-26T18:20:48.964Z,65.61
2023-02-26T18:23:16.814Z,65.62
2023-02-26T18:25:50.405Z,65.60
2023-02-26T18:28:23.242Z,65.85
2023-02-26T18:30:51.219Z,65.77
2023-02-26T18:33:19.189Z,65.70
2023-02-26T18:35:54.961Z,66.05
2023-02-26T18:38:25.985Z,65.79
2023-02-26T18:40:53.814Z,66.23
2023-02-26T18:43:21.364Z,66.40
2023-02-26T18:45:50.623Z,66.07
2023-02-26T18:48:21.153Z,65.99
2023-02-26T18:50:49.228Z,66.73
2023-02-26T18:53:17.610Z,66.62
2023-02-26T18:55:45.260Z,66.45
2023-02-26T18:58:12.372Z,66.77
2023-02-26T19:00:39.328Z,66.99
2023-02-26T19:03:06.256Z,67.15
2023-02-26T19:05:33.150Z,67.24
2023-02-26T19:08:01.032Z,67.37
2023-02-26T19:10:31.775Z,67.72
2023-02-26T19:12:59.067Z,67.30
2023-02-26T19:15:27.014Z,67.73
2023-02-26T19:17:54.096Z,67.79
2023-02-26T19:20:21.088Z,68.09
2023-02-26T19:22:48.885Z,68.28
2023-02-26T19:25:16.051Z,67.89
2023-02-26T19:27:42.931Z,68.26
2023-02-26T19:30:10.667Z,68.16
2023-02-26T19:32:37.760Z,68.74
2023-02-26T19:35:05.195Z,68.53
2023-02-26T19:37:32.320Z,68.65
2023-02-26T19:39:59.297Z,68.91
2023-02-26T19:42:28.358Z,68.78
2023-02-26T19:44:55.309Z,68.84
2023-02-26T19:47:22.255Z,69.34
2023-02-26T19:49:49.187Z,68.94
2023-02-26T19:52:16.146Z,68.84
2023-02-26T19:54:43.081Z,69.34
2023-02-26T19:57:10.031Z,69.37
2023-02-26T19:59:37.016Z,69.04
2023-02-26T20:02:05.501Z,69.26
2023-02-26T20:04:33.377Z,69.73
2023-02-26T20:07:00.263Z,69.33
2023-02-26T20:09:28.007Z,69.45
2023-02-26T20:11:55.128Z,69.83
2023-02-26T20:14:22.089Z,69.53
2023-02-26T20:16:49.024Z,69.57
2023-02-26T20:19:16.394Z,69.57
2023-02-26T20:21:43.645Z,69.76
2023-02-26T20:24:11.077Z,69.82
2023-02-26T20:26:38.142Z,70.21
2023-02-26T20:29:05.246Z,70.53
2023-02-26T20:31:32.214Z,70.03
2023-02-26T20:33:59.224Z,70.52
2023-02-26T20:36:26.373Z,70.36
2023-02-26T20:38:53.289Z,70.10
2023-02-26T20:41:20.406Z,70.91
2023-02-26T20:43:47.743Z,70.17
2023-02-26T20:46:14.822Z,70.40
2023-02-26T20:48:43.653Z,70.92
2023-02-26T20:51:12.086Z,70.93
2023-02-26T20:53:39.997Z,71.18
2023-02-26T20:56:07.565Z,70.93
2023-02-26T20:58:34.717Z,71.39
2023-02-26T21:01:01.686Z,71.62
2023-02-26T21:03:28.646Z,71.14
2023-02-26T21:05:56.277Z,71.24
2023-02-26T21:08:23.525Z,71.26
2023-02-26T21:10:53.540Z,71.70
2023-02-26T21:13:20.831Z,72.04
2023-02-26T21:15:50.208Z,71.63
2023-02-26T21:18:17.356Z,71.83
2023-02-26T21:20:44.291Z,72.27
2023-02-26T21:23:11.319Z,72.09
2023-02-26T21:25:39.580Z,72.63
2023-02-26T21:28:06.649Z,72.40
2023-02-26T21:30:33.595Z,72.73
2023-02-26T21:33:00.495Z,72.56
2023-02-26T21:35:27.501Z,72.52
2023-02-26T21:37:54.661Z,72.68
2023-02-26T21:40:22.699Z,72.76
2023-02-26T21:42:49.651Z,73.13
2023-02-26T21:45:16.578Z,73.00
2023-02-26T21:47:43.565Z,72.71
2023-02-26T21:50:11.245Z,73.03
2023-02-26T21:52:38.198Z,72.70
2023-02-26T21:55:06.108Z,72.83
2023-02-26T21:57:33.039Z,73.16
2023-02-26T22:00:00.043Z,72.71
2023-02-26T22:02:27.078Z,73.17
2023-02-26T22:04:54.142Z,72.77
2023-02-26T22:07:21.028Z,72.86
2023-02-26T22:09:49.107Z,72.98
2023-02-26T22:12:17.286Z,73.24
2023-02-26T22:14:44.575Z,73.01
2023-02-26T22:17:11.597Z,73.32
2023-02-26T22:19:38.509Z,73.64
2023-02-26T22:22:05.496Z,74.30
2023-02-26T22:24:32.567Z,73.96
2023-02-26T22:26:59.466Z,74.23
2023-02-26T22:29:26.384Z,73.86
2023-02-26T22:31:54.076Z,74.47
2023-02-26T22:34:21.064Z,74.42
2023-02-26T22:36:48.167Z,74.59
2023-02-26T22:39:15.074Z,73.98
2023-02-26T22:41:42.065Z,74.69
2023-02-26T22:44:09.044Z,74.75
2023-02-26T22:46:35.993Z,74.40
2023-02-26T22:49:03.202Z,74.07
2023-02-26T22:51:32.279Z,74.31
2023-02-26T22:54:01.101Z,74.40
2023-02-26T22:56:28.701Z,74.78
2023-02-26T22:58:56.774Z,74.50
2023-02-26T23:01:24.068Z,74.15
2023-02-26T23:03:51.038Z,74.52
2023-02-26T23:06:18.090Z,74.46
2023-02-26T23:08:45.075Z,74.24
2023-02-26T23:11:12.230Z,74.37
2023-02-26T23:13:39.329Z,74.47
2023-02-26T23:16:09.311Z,74.90
2023-02-26T23:18:37.131Z,74.43
2023-02-26T23:21:08.265Z,74.49
2023-02-26T23:23:35.454Z,74.73
2023-02-26T23:26:02.767Z,74.98
2023-02-26T23:28:30.353Z,75.02
2023-02-26T23:30:57.366Z,74.89
2023-02-26T23:33:24.567Z,74.74
2023-02-26T23:35:51.845Z,74.41
2023-02-26T23:38:18.836Z,74.88
2023-02-26T23:40:45.743Z,75.15
2023-02-26T23:43:12.635Z,75.55
2023-02-26T23:45:39.639Z,75.44
2023-02-26T23:48:06.817Z,75.47
2023-02-26T23:50:33.811Z,75.27
2023-02-26T23:53:00.756Z,75.84
2023-02-26T23:55:27.729Z,75.21
2023-02-26T23:57:54.599Z,75.30
